Time;durP1;ratioP1;P1;durP2;ratioP2;P2;SDS_P1;SDS_P2;PMS_P1;PMS_P2;Temp;Humidity;BMP_temperature;BMP_pressure;BME280_temperature;BME280_humidity;BME280_pressure;Samples;Min_cycle;Max_cycle;Signal;HPM_P1;HPM_P2
2022/02/28 00:02:14;;;;;;;4.05;3.75;;;;;;;3.26;65.09;95319.22;4927231;29;20050;-79
2022/02/28 00:04:39;;;;;;;4.75;4.05;;;;;;;3.35;64.61;95315.59;4911710;29;20040;-79
2022/02/28 00:07:05;;;;;;;3.85;3.58;;;;;;;3.36;64.74;95309.47;4897108;29;20436;-79
2022/02/28 00:09:30;;;;;;;4.20;3.63;;;;;;;3.43;64.47;95309.59;4927829;29;20031;-79
2022/02/28 00:12:02;;;;;;;3.78;3.47;;;;;;;3.44;64.22;95311.97;4929794;29;20043;-79
2022/02/28 00:14:27;;;;;;;3.90;3.60;;;;;;;3.48;64.66;95305.50;4928103;29;20031;-79
2022/02/28 00:16:52;;;;;;;4.95;3.78;;;;;;;3.45;64.27;95303.28;4929444;29;20288;-79
2022/02/28 00:19:18;;;;;;;5.32;4.70;;;;;;;3.38;64.48;95297.25;4969864;23;20087;-79
2022/02/28 00:21:46;;;;;;;5.32;4.82;;;;;;;3.34;65.20;95301.13;4945383;29;20488;-79
2022/02/28 00:24:11;;;;;;;4.68;4.28;;;;;;;3.40;64.67;95299.63;4971913;23;20512;-79
2022/02/28 00:26:37;;;;;;;4.40;3.30;;;;;;;3.40;64.57;95297.84;5059862;23;20043;-79
2022/02/28 00:29:02;;;;;;;4.68;4.15;;;;;;;3.35;65.52;95296.78;4933028;29;20048;-79
2022/02/28 00:31:28;;;;;;;4.05;3.75;;;;;;;3.37;65.06;95294.84;4918107;29;20174;-78
2022/02/28 00:33:53;;;;;;;3.95;3.65;;;;;;;3.39;64.98;95293.69;4921553;23;20095;-78
2022/02/28 00:36:19;;;;;;;3.88;3.58;;;;;;;3.39;64.93;95293.69;4934078;29;20504;-78
2022/02/28 00:38:44;;;;;;;4.10;3.70;;;;;;;3.38;65.00;95286.97;4956296;23;20519;-78
2022/02/28 00:41:09;;;;;;;4.05;3.78;;;;;;;3.38;64.80;95293.88;4933585;29;20067;-78
2022/02/28 00:43:35;;;;;;;6.60;4.45;;;;;;;3.38;64.48;95284.38;4930131;29;20036;-78
2022/02/28 00:46:01;;;;;;;6.38;3.58;;;;;;;3.37;64.46;95280.22;4913805;29;20044;-78
2022/02/28 00:48:26;;;;;;;4.55;4.15;;;;;;;3.45;64.91;95279.34;4914761;29;20473;-78
2022/02/28 00:50:52;;;;;;;3.33;3.13;;;;;;;3.42;64.14;95277.94;4913234;29;20467;-78
2022/02/28 00:53:17;;;;;;;4.03;3.72;;;;;;;3.51;64.39;95276.88;4917218;29;20052;-77
2022/02/28 00:55:43;;;;;;;4.18;3.88;;;;;;;3.56;64.29;95274.56;4933068;29;20032;-78
2022/02/28 00:58:08;;;;;;;3.83;3.53;;;;;;;3.59;64.50;95274.22;4916511;29;20044;-78
2022/02/28 01:00:34;;;;;;;4.88;4.15;;;;;;;3.66;63.83;95265.78;4905485;29;20028;-78
2022/02/28 01:03:00;;;;;;;4.82;4.35;;;;;;;3.67;64.58;95265.63;4897001;29;20154;-78
2022/02/28 01:05:25;;;;;;;4.50;4.10;;;;;;;3.65;65.35;95266.78;4897241;29;20040;-78
2022/02/28 01:07:51;;;;;;;6.25;3.88;;;;;;;3.54;65.21;95255.94;4898471;29;20024;-78
2022/02/28 01:10:18;;;;;;;4.13;3.78;;;;;;;3.44;65.12;95263.13;4898920;29;20043;-78
2022/02/28 01:12:43;;;;;;;4.97;3.92;;;;;;;3.50;64.47;95254.72;4914797;29;20071;-78
2022/02/28 01:15:10;;;;;;;7.53;5.22;;;;;;;3.54;65.31;95258.50;4888158;29;20040;-80
2022/02/28 01:17:35;;;;;;;5.70;4.90;;;;;;;3.53;65.10;95264.63;4891909;29;20498;-80
2022/02/28 01:20:01;;;;;;;4.93;4.53;;;;;;;3.55;65.64;95267.81;4921688;29;20044;-80
2022/02/28 01:22:26;;;;;;;5.07;4.57;;;;;;;3.54;65.54;95261.09;4923036;29;20040;-79
2022/02/28 01:24:52;;;;;;;6.35;5.47;;;;;;;3.46;66.13;95256.03;4905118;29;20040;-79
2022/02/28 01:27:18;;;;;;;6.53;5.32;;;;;;;3.47;65.65;95255.06;4921957;29;20076;-79
2022/02/28 01:29:44;;;;;;;6.60;5.30;;;;;;;3.46;65.67;95253.47;4922397;29;20064;-78
2022/02/28 01:32:09;;;;;;;7.60;5.93;;;;;;;3.44;65.91;95255.44;4920990;29;20476;-79
2022/02/28 01:34:35;;;;;;;6.85;5.90;;;;;;;3.48;65.52;95253.28;4920138;29;20042;-79
2022/02/28 01:37:00;;;;;;;8.68;7.45;;;;;;;3.40;65.61;95254.16;4918498;29;20040;-81
2022/02/28 01:39:26;;;;;;;11.50;8.10;;;;;;;3.42;65.37;95247.09;4919912;29;20042;-78
2022/02/28 01:41:51;;;;;;;11.35;8.43;;;;;;;3.37;65.11;95251.94;4920507;29;20033;-77
2022/02/28 01:44:17;;;;;;;10.90;7.13;;;;;;;3.35;65.28;95246.19;4916458;29;20032;-77
2022/02/28 01:46:42;;;;;;;12.73;7.82;;;;;;;3.27;65.93;95244.50;4918760;29;20038;-79
2022/02/28 01:51:38;;;;;;;13.05;7.55;;;;;;;3.18;66.40;95252.47;4906549;29;20129;-78
2022/02/28 01:54:04;;;;;;;25.73;12.48;;;;;;;3.15;66.23;95250.25;4906477;29;20115;-78
2022/02/28 01:56:30;;;;;;;28.17;14.48;;;;;;;3.11;66.55;95239.53;4908054;29;20048;-78
2022/02/28 01:58:55;;;;;;;19.65;10.60;;;;;;;3.09;66.33;95240.66;4907694;29;20036;-79
2022/02/28 02:01:20;;;;;;;23.50;11.70;;;;;;;3.06;66.28;95241.00;4908188;29;20024;-78
2022/02/28 02:03:46;;;;;;;14.20;7.38;;;;;;;3.06;65.50;95238.44;4891441;29;20047;-78
2022/02/28 02:06:12;;;;;;;5.43;4.55;;;;;;;3.11;63.22;95238.72;4908153;29;20072;-78
2022/02/28 02:08:38;;;;;;;5.15;4.20;;;;;;;3.14;61.74;95231.47;4906175;29;20044;-78
2022/02/28 02:11:03;;;;;;;7.25;4.70;;;;;;;3.09;61.34;95227.81;4908754;29;20037;-78
2022/02/28 02:13:30;;;;;;;4.70;3.70;;;;;;;3.09;60.54;95227.81;4906363;29;20036;-78
2022/02/28 02:15:56;;;;;;;4.47;3.70;;;;;;;2.81;60.20;95238.66;4913183;29;20036;-78
2022/02/28 02:18:21;;;;;;;3.83;3.38;;;;;;;2.55;60.26;95233.88;4898225;29;20030;-78
2022/02/28 02:20:47;;;;;;;2.80;2.65;;;;;;;2.37;59.58;95226.47;4907974;29;20040;-78
2022/02/28 02:23:13;;;;;;;2.92;2.78;;;;;;;2.18;60.00;95229.47;4889670;29;20032;-78
2022/02/28 02:25:39;;;;;;;2.92;2.70;;;;;;;2.10;61.12;95250.03;4905093;29;20513;-78
2022/02/28 02:28:06;;;;;;;5.32;3.08;;;;;;;1.85;60.96;95230.63;4906436;29;20039;-78
2022/02/28 02:30:31;;;;;;;3.08;2.88;;;;;;;1.45;62.43;95237.47;4890572;29;20132;-78
2022/02/28 02:32:57;;;;;;;4.03;2.78;;;;;;;1.08;63.87;95233.72;4913128;29;20112;-78
2022/02/28 02:35:22;;;;;;;3.80;3.47;;;;;;;0.90;64.89;95238.25;4906727;29;20040;-78
2022/02/28 02:37:48;;;;;;;2.80;2.70;;;;;;;0.93;65.44;95229.44;4905369;29;20032;-78
2022/02/28 02:40:13;;;;;;;3.47;2.88;;;;;;;1.03;63.97;95232.63;4906470;29;20032;-78
2022/02/28 02:42:39;;;;;;;4.40;3.00;;;;;;;1.02;63.62;95233.59;4914402;29;20036;-77
2022/02/28 02:45:05;;;;;;;8.07;6.53;;;;;;;0.97;64.24;95235.81;4890971;29;20031;-79
2022/02/28 02:47:30;;;;;;;3.90;3.50;;;;;;;0.85;64.50;95228.50;4905841;29;20036;-79
2022/02/28 02:49:56;;;;;;;3.50;3.30;;;;;;;0.62;65.17;95237.75;4889420;29;20036;-77
2022/02/28 02:52:21;;;;;;;4.70;3.20;;;;;;;0.50;65.83;95229.63;4903269;29;20036;-77
2022/02/28 02:54:47;;;;;;;6.00;3.33;;;;;;;0.18;66.45;95234.72;4927751;29;20036;-79
2022/02/28 02:57:12;;;;;;;3.22;2.97;;;;;;;0.21;67.58;95234.38;4905936;29;20024;-79
2022/02/28 02:59:38;;;;;;;5.38;3.33;;;;;;;0.19;67.53;95244.78;4905645;29;20051;-79
2022/02/28 03:02:03;;;;;;;3.30;3.00;;;;;;;-0.05;67.91;95242.94;4905803;29;20071;-79
2022/02/28 03:04:29;;;;;;;3.03;2.70;;;;;;;-0.02;66.18;95229.06;4905407;29;20056;-79
2022/02/28 03:06:55;;;;;;;3.70;3.40;;;;;;;0.17;66.05;95239.03;4906404;29;20063;-79
2022/02/28 03:09:20;;;;;;;3.53;3.22;;;;;;;0.23;65.38;95237.59;4912517;29;20437;-79
2022/02/28 03:11:46;;;;;;;6.25;3.53;;;;;;;0.48;65.98;95240.94;4893445;29;20036;-79
2022/02/28 03:14:11;;;;;;;4.32;3.50;;;;;;;0.72;65.16;95245.28;4906432;29;20409;-79
2022/02/28 03:16:37;;;;;;;3.42;3.13;;;;;;;0.97;65.50;95244.31;4909693;29;20047;-82
2022/02/28 03:19:03;;;;;;;3.70;3.13;;;;;;;0.93;62.88;95237.91;4908153;29;20127;-79
2022/02/28 03:21:28;;;;;;;7.97;3.70;;;;;;;1.11;62.92;95247.97;4906108;29;20111;-79
2022/02/28 03:23:54;;;;;;;4.05;3.50;;;;;;;1.27;64.39;95245.38;4899895;29;20036;-79
2022/02/28 03:26:19;;;;;;;3.10;2.85;;;;;;;1.49;63.95;95247.25;4908024;29;20516;-78
2022/02/28 03:28:44;;;;;;;3.53;3.03;;;;;;;1.67;63.63;95244.47;4907517;29;20039;-78
2022/02/28 03:31:10;;;;;;;3.58;3.22;;;;;;;1.85;63.07;95240.88;4906886;29;20043;-78
2022/02/28 03:33:35;;;;;;;4.07;3.25;;;;;;;2.01;62.41;95243.34;4890423;29;20036;-78
2022/02/28 03:36:01;;;;;;;4.95;4.13;;;;;;;2.07;61.86;95243.47;4905401;29;20096;-78
2022/02/28 03:38:26;;;;;;;4.15;3.47;;;;;;;2.10;61.15;95244.91;4904412;29;20032;-79
2022/02/28 03:40:52;;;;;;;4.07;3.60;;;;;;;2.18;61.12;95242.31;4927708;29;20040;-79
2022/02/28 03:43:17;;;;;;;4.43;3.72;;;;;;;2.12;60.44;95240.41;4924717;23;20174;-79
2022/02/28 03:45:43;;;;;;;3.80;3.47;;;;;;;1.78;61.49;95249.22;4916852;29;20036;-78
2022/02/28 03:48:08;;;;;;;5.70;3.78;;;;;;;1.78;61.73;95244.09;4899185;29;20509;-79
2022/02/28 03:50:34;;;;;;;6.28;4.57;;;;;;;1.69;62.21;95257.91;4900451;29;20044;-79
2022/02/28 03:52:59;;;;;;;4.75;4.30;;;;;;;1.69;62.35;95247.66;4892298;29;20059;-79
2022/02/28 03:55:25;;;;;;;5.38;4.57;;;;;;;1.40;64.23;95250.78;4876329;29;20028;-79
2022/02/28 03:57:50;;;;;;;5.50;4.97;;;;;;;1.42;62.54;95243.75;4884027;29;20390;-79
2022/02/28 04:00:16;;;;;;;6.28;4.38;;;;;;;1.24;61.96;95252.59;4918510;29;20108;-79
2022/02/28 04:02:41;;;;;;;4.97;4.43;;;;;;;0.77;65.00;95256.66;4916377;29;20036;-79
2022/02/28 04:05:07;;;;;;;4.88;4.35;;;;;;;0.80;65.23;95255.50;4915969;29;20044;-78
2022/02/28 04:07:32;;;;;;;5.38;3.42;;;;;;;0.58;64.49;95247.53;4916518;29;20099;-79
2022/02/28 04:09:58;;;;;;;3.83;3.58;;;;;;;0.52;65.16;95247.38;4913849;29;20040;-78
2022/02/28 04:12:32;;;;;;;4.93;3.72;;;;;;;0.44;65.51;95247.34;4919631;23;20034;-78
2022/02/28 04:14:58;;;;;;;5.03;3.85;;;;;;;0.23;67.85;95245.25;4920314;29;20040;-79
2022/02/28 04:17:23;;;;;;;3.90;3.58;;;;;;;0.18;67.86;95234.72;4916902;29;20040;-79
2022/02/28 04:19:49;;;;;;;4.03;3.65;;;;;;;0.08;66.88;95255.28;4916014;29;20500;-79
2022/02/28 04:22:14;;;;;;;5.28;3.13;;;;;;;-0.03;67.40;95251.25;4915027;29;20499;-79
2022/02/28 04:24:44;;;;;;;4.10;3.67;;;;;;;-0.17;66.43;95263.84;4899496;29;20107;-79
2022/02/28 04:29:38;;;;;;;4.65;4.22;;;;;;;-0.01;68.74;95254.47;4960287;23;20048;-79
2022/02/28 04:32:04;;;;;;;3.83;3.53;;;;;;;0.14;67.93;95264.09;4924155;29;20062;-78
2022/02/28 04:34:30;;;;;;;3.78;3.28;;;;;;;0.25;67.55;95262.03;4923137;29;20071;-78
2022/02/28 04:36:55;;;;;;;4.78;3.88;;;;;;;0.28;67.11;95256.59;4888141;29;20122;-78
2022/02/28 04:39:21;;;;;;;3.95;3.58;;;;;;;0.27;67.27;95261.88;4923743;29;20047;-78
2022/02/28 04:41:46;;;;;;;3.33;3.05;;;;;;;0.35;67.10;95261.91;4997828;23;20111;-78
2022/02/28 04:44:11;;;;;;;5.63;3.15;;;;;;;0.16;66.23;95277.50;4925655;29;20118;-78
2022/02/28 04:46:37;;;;;;;5.32;4.15;;;;;;;0.12;66.94;95266.00;4915056;29;20040;-78
2022/02/28 04:49:02;;;;;;;4.85;3.70;;;;;;;0.10;68.37;95273.03;4916285;29;20456;-78
2022/02/28 04:51:28;;;;;;;5.53;3.88;;;;;;;0.09;68.98;95276.53;4917149;29;20564;-78
2022/02/28 04:53:53;;;;;;;4.20;3.80;;;;;;;0.15;68.36;95275.91;4983795;23;20079;-78
2022/02/28 04:56:19;;;;;;;5.63;3.70;;;;;;;0.15;68.13;95270.78;4946516;29;20109;-78
2022/02/28 04:58:47;;;;;;;6.68;4.45;;;;;;;0.29;67.04;95271.00;4941533;29;20629;-78
2022/02/28 05:01:13;;;;;;;4.22;3.92;;;;;;;0.31;67.40;95273.38;4929403;29;20135;-79
2022/02/28 05:03:38;;;;;;;4.95;4.53;;;;;;;0.29;66.80;95276.09;4926900;23;20063;-78
2022/02/28 05:06:04;;;;;;;5.20;3.70;;;;;;;0.45;66.99;95277.91;4918469;29;20032;-78
2022/02/28 05:08:29;;;;;;;4.30;3.75;;;;;;;0.53;67.00;95280.47;4915192;29;20039;-79
2022/02/28 05:10:55;;;;;;;4.38;3.90;;;;;;;0.66;67.36;95286.91;4951424;23;20053;-78
2022/02/28 05:13:20;;;;;;;9.30;3.97;;;;;;;0.75;66.00;95288.47;4917319;29;20481;-79
2022/02/28 05:15:46;;;;;;;3.97;3.67;;;;;;;0.72;66.43;95288.81;4898529;29;20349;-78
2022/02/28 05:18:14;;;;;;;33.90;14.55;;;;;;;0.83;66.73;95291.06;4899440;29;20043;-78
2022/02/28 05:20:39;;;;;;;12.77;8.10;;;;;;;0.74;65.29;95294.56;4897299;29;20029;-78
2022/02/28 05:23:05;;;;;;;6.13;4.60;;;;;;;0.58;66.27;95296.16;4948902;23;20063;-78
2022/02/28 05:25:30;;;;;;;4.68;4.25;;;;;;;0.81;66.64;95292.94;4944028;23;20043;-78
2022/02/28 05:27:56;;;;;;;7.78;4.90;;;;;;;0.74;65.42;95299.69;4938443;29;20083;-79
2022/02/28 05:30:21;;;;;;;6.25;4.18;;;;;;;0.75;64.87;95298.72;4907590;29;20036;-79
2022/02/28 05:32:47;;;;;;;4.05;3.65;;;;;;;0.83;64.14;95302.09;4919672;29;20032;-79
2022/02/28 05:35:12;;;;;;;4.40;3.92;;;;;;;0.93;64.51;95306.25;4896875;29;20087;-79
2022/02/28 05:37:41;;;;;;;5.40;4.40;;;;;;;0.96;64.10;95301.59;4920495;29;20059;-79
2022/02/28 05:40:08;;;;;;;3.80;3.50;;;;;;;1.10;63.82;95311.19;4920393;29;20496;-78
2022/02/28 05:42:34;;;;;;;5.80;4.07;;;;;;;1.23;63.51;95303.03;4918009;29;20091;-78
2022/02/28 05:44:59;;;;;;;4.15;3.85;;;;;;;1.32;62.33;95306.41;4918565;29;20040;-78
2022/02/28 05:47:28;;;;;;;4.03;3.72;;;;;;;1.51;63.14;95306.03;4923914;23;20033;-78
2022/02/28 05:49:53;;;;;;;4.40;4.00;;;;;;;1.64;62.34;95310.66;4918450;29;20039;-78
2022/02/28 05:52:18;;;;;;;4.30;4.00;;;;;;;1.75;61.29;95308.53;4916359;29;20039;-78
2022/02/28 05:54:44;;;;;;;4.13;3.83;;;;;;;1.69;61.15;95311.75;4915984;29;20047;-78
2022/02/28 05:57:09;;;;;;;3.70;3.40;;;;;;;1.69;61.67;95314.31;4920024;29;20064;-78
2022/02/28 05:59:35;;;;;;;4.03;3.72;;;;;;;1.79;60.80;95314.13;4920024;29;20195;-78
2022/02/28 06:02:00;;;;;;;4.03;3.70;;;;;;;1.92;61.37;95318.72;4918990;29;20509;-79
2022/02/28 06:04:26;;;;;;;4.20;3.90;;;;;;;2.02;60.89;95309.06;4920383;23;20059;-79
2022/02/28 06:06:51;;;;;;;4.22;3.92;;;;;;;1.90;60.47;95311.19;4937946;29;20044;-79
2022/02/28 06:09:17;;;;;;;4.60;4.20;;;;;;;2.15;60.87;95308.53;4937378;29;20031;-79
2022/02/28 06:11:42;;;;;;;4.03;3.72;;;;;;;2.24;60.18;95318.59;4904739;29;20381;-79
2022/02/28 06:14:08;;;;;;;4.03;3.72;;;;;;;2.29;60.13;95306.06;4905146;29;20059;-79
2022/02/28 06:16:33;;;;;;;4.15;3.70;;;;;;;2.38;60.11;95317.88;4938364;29;20039;-79
2022/02/28 06:18:59;;;;;;;4.03;3.70;;;;;;;2.28;59.18;95314.75;4935316;29;20064;-79
2022/02/28 06:21:24;;;;;;;3.42;3.20;;;;;;;2.02;60.75;95311.66;4939243;29;20036;-79
2022/02/28 06:23:50;;;;;;;4.95;3.55;;;;;;;2.16;60.64;95320.41;4936980;29;20032;-79
2022/02/28 06:26:19;;;;;;;4.45;3.80;;;;;;;2.00;61.18;95316.16;4941715;29;20063;-79
2022/02/28 06:28:45;;;;;;;3.55;3.25;;;;;;;1.72;60.67;95316.53;4940238;29;20035;-79
2022/02/28 06:31:10;;;;;;;5.47;4.38;;;;;;;1.69;62.36;95319.44;4940246;29;20031;-79
2022/02/28 06:33:36;;;;;;;7.13;4.57;;;;;;;1.86;62.22;95319.41;4940064;29;20510;-79
2022/02/28 06:36:01;;;;;;;7.47;5.03;;;;;;;1.61;62.28;95316.88;4938786;29;20059;-79
2022/02/28 06:38:27;;;;;;;8.25;6.38;;;;;;;1.58;63.13;95317.22;4939176;29;20038;-79
2022/02/28 06:40:52;;;;;;;13.63;6.95;;;;;;;1.32;63.69;95312.31;4937741;29;20460;-79
2022/02/28 06:43:20;;;;;;;7.38;6.53;;;;;;;1.39;64.53;95312.44;4921001;29;20042;-79
2022/02/28 06:45:46;;;;;;;7.45;6.43;;;;;;;1.44;63.98;95315.31;4935370;29;20431;-79
2022/02/28 06:48:15;;;;;;;12.05;5.30;;;;;;;1.62;64.33;95322.81;4919405;29;20034;-79
2022/02/28 06:50:41;;;;;;;6.88;4.28;;;;;;;1.68;62.56;95312.72;4937920;29;20039;-79
2022/02/28 06:53:06;;;;;;;5.68;4.25;;;;;;;1.84;62.28;95311.06;4934462;29;20087;-79
2022/02/28 06:55:32;;;;;;;20.48;8.05;;;;;;;2.11;62.45;95315.75;4920063;29;20118;-79
2022/02/28 06:57:57;;;;;;;19.75;10.02;;;;;;;2.16;61.48;95316.06;4935199;29;20613;-79
2022/02/28 07:00:23;;;;;;;10.73;5.28;;;;;;;2.29;60.22;95318.91;4918774;29;20046;-78
2022/02/28 07:02:48;;;;;;;4.72;3.78;;;;;;;2.28;61.10;95321.63;4937763;23;20049;-78
2022/02/28 07:05:13;;;;;;;5.45;4.20;;;;;;;2.39;59.92;95305.84;4900777;29;20036;-79
2022/02/28 07:07:39;;;;;;;7.80;3.83;;;;;;;2.59;60.39;95316.47;4900950;29;20112;-79
2022/02/28 07:10:05;;;;;;;4.65;3.65;;;;;;;2.78;59.00;95310.91;4882977;29;20029;-78
2022/02/28 07:12:30;;;;;;;4.43;3.70;;;;;;;2.60;59.95;95307.81;4877816;29;20036;-78
2022/02/28 07:14:56;;;;;;;3.67;3.42;;;;;;;2.81;60.13;95308.00;4901677;29;20044;-81
2022/02/28 07:17:23;;;;;;;10.52;3.42;;;;;;;2.82;58.48;95319.88;4862898;29;20048;-80
2022/02/28 07:19:48;;;;;;;7.82;3.95;;;;;;;2.86;58.90;95303.13;4884105;29;20096;-79
2022/02/28 07:22:14;;;;;;;6.10;3.67;;;;;;;2.72;57.87;95307.25;4896874;29;20486;-78
2022/02/28 07:24:39;;;;;;;3.80;3.50;;;;;;;2.64;58.68;95329.63;4910854;23;20567;-78
2022/02/28 07:27:04;;;;;;;4.15;3.65;;;;;;;2.64;58.42;95314.22;4914191;29;20099;-78
2022/02/28 07:29:30;;;;;;;4.35;3.95;;;;;;;2.67;59.19;95311.31;4916440;29;20040;-78
2022/02/28 07:31:56;;;;;;;12.07;4.70;;;;;;;2.84;59.37;95317.94;4897384;29;20024;-77
2022/02/28 07:34:21;;;;;;;3.50;3.20;;;;;;;2.68;58.16;95323.16;4897189;29;20028;-76
2022/02/28 07:36:47;;;;;;;4.85;4.43;;;;;;;2.17;59.86;95322.81;4896630;29;20146;-76
2022/02/28 07:39:12;;;;;;;4.82;4.43;;;;;;;2.18;61.52;95324.41;4913406;29;20508;-77
2022/02/28 07:41:38;;;;;;;5.78;4.63;;;;;;;2.29;61.26;95334.31;4894594;29;20054;-76
2022/02/28 07:44:04;;;;;;;4.80;4.40;;;;;;;2.17;61.79;95338.19;4913078;29;20083;-77
2022/02/28 07:46:30;;;;;;;4.50;4.20;;;;;;;2.23;60.70;95334.94;4911943;29;20500;-77
2022/02/28 07:48:55;;;;;;;4.65;4.22;;;;;;;2.39;61.60;95339.22;4911217;29;20099;-77
2022/02/28 07:51:21;;;;;;;4.85;4.40;;;;;;;2.00;61.05;95347.72;4912116;29;20571;-77
2022/02/28 07:53:46;;;;;;;4.63;4.15;;;;;;;1.78;61.56;95338.94;4912849;29;20036;-76
2022/02/28 07:56:12;;;;;;;5.07;4.55;;;;;;;1.27;61.90;95341.94;4913121;29;20047;-77
2022/02/28 07:58:37;;;;;;;8.88;5.47;;;;;;;1.15;63.39;95341.47;4895398;29;20032;-76
2022/02/28 08:01:03;;;;;;;6.10;4.72;;;;;;;1.07;63.59;95344.03;4894965;29;20104;-77
2022/02/28 08:03:28;;;;;;;6.32;5.32;;;;;;;1.38;61.80;95346.72;4912317;29;20083;-77
2022/02/28 08:05:53;;;;;;;7.30;4.75;;;;;;;1.45;61.24;95345.09;4912721;29;20028;-77
2022/02/28 08:08:19;;;;;;;5.65;5.07;;;;;;;1.59;61.26;95344.44;4914434;29;20088;-77
2022/02/28 08:10:44;;;;;;;6.78;4.93;;;;;;;1.83;60.71;95342.81;4895991;29;20036;-77
2022/02/28 08:13:12;;;;;;;11.10;5.03;;;;;;;2.03;60.44;95344.81;4912907;29;20035;-76
2022/02/28 08:15:39;;;;;;;8.43;4.90;;;;;;;1.60;60.50;95343.47;4912448;29;20468;-77
2022/02/28 08:18:05;;;;;;;7.88;5.90;;;;;;;1.77;60.83;95342.47;4895824;29;20473;-76
2022/02/28 08:20:30;;;;;;;6.00;5.47;;;;;;;1.65;61.73;95346.38;4911803;29;20067;-77
2022/02/28 08:22:56;;;;;;;6.00;5.30;;;;;;;1.60;61.06;95346.03;4880378;29;20035;-77
2022/02/28 08:25:22;;;;;;;7.55;5.82;;;;;;;1.96;61.71;95341.31;4914092;29;20044;-76
2022/02/28 08:27:47;;;;;;;16.98;4.72;;;;;;;1.98;61.86;95359.13;4899210;29;20036;-76
2022/02/28 08:30:13;;;;;;;4.65;4.25;;;;;;;1.76;61.85;95358.03;4913279;29;20039;-76
2022/02/28 08:32:38;;;;;;;7.13;4.70;;;;;;;2.00;60.11;95352.06;4883410;29;20055;-76
2022/02/28 08:35:04;;;;;;;5.45;4.90;;;;;;;2.25;60.67;95347.59;4916666;29;20084;-76
2022/02/28 08:37:30;;;;;;;6.38;5.20;;;;;;;2.37;59.79;95343.72;4882848;29;20032;-77
2022/02/28 08:39:55;;;;;;;7.53;5.30;;;;;;;2.00;60.37;95347.72;4914784;29;20055;-76
2022/02/28 08:42:21;;;;;;;6.55;4.38;;;;;;;1.62;60.80;95349.25;4914252;29;20095;-76
2022/02/28 08:44:46;;;;;;;9.75;6.60;;;;;;;1.58;61.40;95353.09;4915696;29;20111;-77
2022/02/28 08:47:11;;;;;;;8.60;5.80;;;;;;;1.54;60.98;95351.03;4916187;29;20040;-77
2022/02/28 08:49:37;;;;;;;9.90;4.45;;;;;;;1.84;59.92;95354.66;4916972;29;20401;-76
2022/02/28 08:52:04;;;;;;;4.32;3.92;;;;;;;1.95;58.02;95359.41;4898718;29;20035;-76
2022/02/28 08:54:30;;;;;;;5.00;4.25;;;;;;;1.90;58.79;95352.22;4899030;29;20067;-77
2022/02/28 08:56:55;;;;;;;5.45;3.88;;;;;;;1.86;60.02;95363.00;4914209;29;20036;-77
2022/02/28 08:59:21;;;;;;;5.25;4.75;;;;;;;1.93;59.84;95353.66;4915925;29;20493;-77
2022/02/28 09:04:27;;;;;;;4.88;4.28;;;;;;;1.99;59.30;95371.78;4965436;23;20047;-77
2022/02/28 09:06:53;;;;;;;5.88;3.40;;;;;;;2.01;58.58;95376.72;4944221;29;20040;-77
2022/02/28 09:09:19;;;;;;;4.07;3.70;;;;;;;1.71;59.82;95373.91;4936329;23;20504;-77
2022/02/28 09:11:44;;;;;;;7.28;3.72;;;;;;;1.78;59.13;95372.28;4915501;29;20044;-77
2022/02/28 09:14:10;;;;;;;6.10;4.22;;;;;;;1.91;60.58;95378.66;4914043;29;20037;-76
2022/02/28 09:16:35;;;;;;;4.97;4.05;;;;;;;2.11;58.43;95372.19;4915546;29;20063;-77
2022/02/28 09:19:01;;;;;;;5.90;3.80;;;;;;;2.08;59.68;95375.91;4913966;29;20813;-77
2022/02/28 09:21:26;;;;;;;5.28;4.70;;;;;;;2.58;59.76;95371.34;4915521;29;20426;-77
2022/02/28 09:23:55;;;;;;;5.93;4.15;;;;;;;2.83;56.65;95380.53;4897470;29;20051;-77
2022/02/28 09:26:21;;;;;;;3.95;3.45;;;;;;;2.38;56.75;95386.38;4914529;29;20039;-77
2022/02/28 09:28:46;;;;;;;4.63;3.95;;;;;;;2.20;57.37;95393.50;4914786;29;20468;-77
2022/02/28 09:31:12;;;;;;;5.80;4.35;;;;;;;2.32;58.04;95387.84;4915324;29;20401;-77
2022/02/28 09:33:37;;;;;;;4.45;3.90;;;;;;;2.64;57.42;95388.66;4913711;29;20031;-77
2022/02/28 09:36:04;;;;;;;5.25;3.97;;;;;;;2.50;56.24;95384.25;4913288;29;20028;-77
2022/02/28 09:38:30;;;;;;;4.68;4.22;;;;;;;2.79;57.02;95387.00;4915185;29;20059;-77
2022/02/28 09:40:56;;;;;;;12.00;3.88;;;;;;;2.21;57.21;95401.03;4915304;29;20032;-77
2022/02/28 09:43:22;;;;;;;3.97;3.50;;;;;;;1.86;58.08;95411.72;4913522;29;20496;-77
2022/02/28 09:45:47;;;;;;;9.48;3.80;;;;;;;1.69;58.64;95401.47;4897608;29;20054;-77
2022/02/28 09:48:14;;;;;;;7.30;3.63;;;;;;;1.94;59.05;95396.28;4897657;29;20040;-77
2022/02/28 09:50:39;;;;;;;3.78;3.47;;;;;;;2.20;59.02;95390.94;4914436;29;20028;-77
2022/02/28 09:53:08;;;;;;;4.22;3.83;;;;;;;2.18;59.09;95396.25;4880372;29;20128;-77
2022/02/28 09:55:33;;;;;;;3.95;3.55;;;;;;;2.15;58.62;95388.88;4914950;29;20036;-77
2022/02/28 09:57:59;;;;;;;4.13;3.58;;;;;;;2.30;60.23;95392.34;4915294;29;20055;-77
2022/02/28 10:00:25;;;;;;;5.05;3.45;;;;;;;2.50;57.22;95389.38;4914095;29;20062;-77
2022/02/28 10:02:51;;;;;;;5.05;4.30;;;;;;;2.17;59.04;95384.38;4914938;29;20503;-77
2022/02/28 10:05:23;;;;;;;4.18;3.53;;;;;;;2.24;57.86;95389.63;4914550;29;20032;-76
2022/02/28 10:07:53;;;;;;;;;;;;;;;2.26;56.82;95385.94;4916348;29;20032;-77
2022/02/28 10:10:18;;;;;;;3.58;3.38;;;;;;;2.20;56.92;95384.03;4915820;29;19966;-78
2022/02/28 10:12:44;;;;;;;7.68;3.47;;;;;;;2.60;57.93;95379.69;4919478;29;20032;-82
2022/02/28 10:15:12;;;;;;;3.75;3.45;;;;;;;2.85;57.44;95393.19;4913548;29;20107;-78
2022/02/28 10:17:47;;;;;;;3.65;3.38;;;;;;;2.75;57.06;95383.13;4915673;29;20036;-79
2022/02/28 10:20:17;;;;;;;3.65;3.35;;;;;;;2.50;57.06;95381.69;4929413;29;20066;-78
2022/02/28 10:22:43;;;;;;;4.63;3.63;;;;;;;2.48;58.17;95386.97;4915545;29;20055;-78
2022/02/28 10:25:09;;;;;;;4.15;3.45;;;;;;;2.54;59.19;95376.03;4917335;29;20086;-80
2022/02/28 10:27:34;;;;;;;12.73;9.30;;;;;;;2.71;58.15;95381.88;4926973;23;20116;-79
2022/02/28 10:30:00;;;;;;;4.97;2.85;;;;;;;2.42;56.18;95378.16;4922572;29;20064;-80
2022/02/28 10:32:27;;;;;;;3.13;2.92;;;;;;;2.21;57.42;95389.97;4904645;29;20064;-79
2022/02/28 10:37:44;;;;;;;6.38;4.30;;;;;;;2.24;59.47;95377.59;4920917;29;20042;-80
2022/02/28 10:40:10;;;;;;;4.03;3.60;;;;;;;2.19;59.17;95377.31;4917423;29;20067;-77
2022/02/28 10:42:45;;;;;;;4.53;3.53;;;;;;;2.17;58.99;95376.69;4914963;29;20129;-77
2022/02/28 10:45:21;;;;;;;6.32;4.03;;;;;;;2.36;58.13;95386.53;4914308;29;20040;-79
2022/02/28 10:47:48;;;;;;;4.15;3.78;;;;;;;2.52;57.54;95372.84;4912587;29;20068;-76
2022/02/28 10:50:39;;;;;;;5.78;3.53;;;;;;;2.30;58.26;95376.16;4914429;29;20111;-77
2022/02/28 10:53:17;;;;;;;4.32;3.20;;;;;;;2.10;59.06;95383.41;4913123;29;20051;-76
2022/02/28 10:55:43;;;;;;;3.45;3.22;;;;;;;2.03;59.26;95374.78;4914573;29;20643;-78
2022/02/28 10:58:09;;;;;;;3.58;3.28;;;;;;;1.57;61.52;95372.00;4915719;29;20119;-78
2022/02/28 11:00:52;;;;;;;6.57;3.88;;;;;;;1.77;61.83;95365.56;4914156;29;20028;-76
2022/02/28 11:03:18;;;;;;;3.95;3.65;;;;;;;1.73;59.25;95377.09;4915968;29;20036;-78
2022/02/28 11:08:22;;;;;;;6.80;3.72;;;;;;;1.49;60.92;95364.34;4941686;23;20044;-78
2022/02/28 11:10:48;;;;;;;5.72;3.95;;;;;;;1.43;61.20;95382.91;4916507;29;20050;-78
2022/02/28 11:13:14;;;;;;;5.03;4.22;;;;;;;1.42;60.71;95365.94;4899000;29;20087;-78
2022/02/28 11:15:40;;;;;;;8.25;3.70;;;;;;;1.54;61.16;95367.22;4914678;29;20044;-78
2022/02/28 11:18:06;;;;;;;4.50;4.07;;;;;;;1.92;59.46;95373.38;4916383;29;20048;-78
2022/02/28 11:20:31;;;;;;;5.47;4.05;;;;;;;1.38;59.71;95367.22;4917263;29;20087;-78
2022/02/28 11:22:59;;;;;;;4.00;3.70;;;;;;;1.35;61.28;95363.22;4916297;29;20044;-78
2022/02/28 11:25:25;;;;;;;15.18;7.40;;;;;;;1.31;59.55;95366.28;4929950;29;20039;-78
2022/02/28 11:27:50;;;;;;;3.40;3.20;;;;;;;1.48;58.45;95355.84;4916320;29;20036;-76
2022/02/28 11:30:18;;;;;;;8.05;4.10;;;;;;;1.71;58.90;95360.28;4912470;29;20040;-77
2022/02/28 11:32:44;;;;;;;6.72;3.60;;;;;;;1.72;56.34;95380.63;4905264;29;20041;-76
2022/02/28 11:35:34;;;;;;;4.40;3.83;;;;;;;1.62;58.17;95351.81;4913515;29;20036;-77
2022/02/28 11:37:59;;;;;;;5.05;3.88;;;;;;;2.01;58.31;95351.88;4914424;29;20043;-78
2022/02/28 11:40:30;;;;;;;6.55;3.88;;;;;;;2.16;58.35;95357.13;4914330;29;20038;-77
2022/02/28 11:43:11;;;;;;;4.32;3.92;;;;;;;2.31;57.43;95352.88;4914807;29;20102;-78
2022/02/28 11:45:37;;;;;;;4.60;4.20;;;;;;;2.29;55.98;95347.13;4896828;29;20032;-78
2022/02/28 11:48:09;;;;;;;4.32;3.92;;;;;;;2.24;55.98;95367.34;4897416;29;20127;-77
2022/02/28 11:50:54;;;;;;;3.65;3.45;;;;;;;2.32;55.61;95346.00;4931148;23;20044;-78